sensor_id;sensor_type;location;lat;lon;timestamp;P1;durP1;ratioP1;P2;durP2;ratioP2
12474;SDS011;6302;42.624;23.334;2023-12-07T00:02:01;51.30;;;32.27;;
12474;SDS011;6302;42.624;23.334;2023-12-07T00:04:27;53.30;;;33.90;;
12474;SDS011;6302;42.624;23.334;2023-12-07T00:06:54;55.37;;;34.03;;
12474;SDS011;6302;42.624;23.334;2023-12-07T00:09:21;56.57;;;35.43;;
12474;SDS011;6302;42.624;23.334;2023-12-07T00:11:49;53.40;;;31.47;;
12474;SDS011;6302;42.624;23.334;2023-12-07T00:14:16;51.77;;;31.67;;
12474;SDS011;6302;42.624;23.334;2023-12-07T00:16:42;52.63;;;33.80;;
12474;SDS011;6302;42.624;23.334;2023-12-07T00:19:09;52.97;;;32.47;;
12474;SDS011;6302;42.624;23.334;2023-12-07T00:21:36;52.63;;;33.07;;
12474;SDS011;6302;42.624;23.334;2023-12-07T00:24:03;55.33;;;35.90;;
12474;SDS011;6302;42.624;23.334;2023-12-07T00:26:30;58.20;;;35.90;;
12474;SDS011;6302;42.624;23.334;2023-12-07T00:28:59;53.20;;;33.53;;
12474;SDS011;6302;42.624;23.334;2023-12-07T00:31:25;49.23;;;31.47;;
12474;SDS011;6302;42.624;23.334;2023-12-07T00:33:52;44.47;;;28.50;;
12474;SDS011;6302;42.624;23.334;2023-12-07T00:36:19;42.93;;;28.20;;
12474;SDS011;6302;42.624;23.334;2023-12-07T00:38:46;46.97;;;29.10;;
12474;SDS011;6302;42.624;23.334;2023-12-07T00:41:13;47.33;;;30.80;;
12474;SDS011;6302;42.624;23.334;2023-12-07T00:43:39;43.60;;;28.17;;
12474;SDS011;6302;42.624;23.334;2023-12-07T00:46:08;42.07;;;27.67;;
12474;SDS011;6302;42.624;23.334;2023-12-07T00:48:34;46.20;;;28.33;;
12474;SDS011;6302;42.624;23.334;2023-12-07T00:51:01;44.53;;;28.37;;
12474;SDS011;6302;42.624;23.334;2023-12-07T00:53:28;46.67;;;28.90;;
12474;SDS011;6302;42.624;23.334;2023-12-07T00:55:55;42.47;;;28.00;;
12474;SDS011;6302;42.624;23.334;2023-12-07T00:58:22;39.23;;;28.27;;
12474;SDS011;6302;42.624;23.334;2023-12-07T01:00:49;41.73;;;27.87;;
12474;SDS011;6302;42.624;23.334;2023-12-07T01:03:17;40.90;;;27.93;;
12474;SDS011;6302;42.624;23.334;2023-12-07T01:05:44;41.97;;;28.50;;
12474;SDS011;6302;42.624;23.334;2023-12-07T01:08:11;38.93;;;25.93;;
12474;SDS011;6302;42.624;23.334;2023-12-07T01:10:38;40.87;;;27.27;;
12474;SDS011;6302;42.624;23.334;2023-12-07T01:13:04;37.63;;;25.37;;
12474;SDS011;6302;42.624;23.334;2023-12-07T01:15:31;38.43;;;24.27;;
12474;SDS011;6302;42.624;23.334;2023-12-07T01:17:58;35.77;;;24.90;;
12474;SDS011;6302;42.624;23.334;2023-12-07T01:20:26;39.83;;;27.00;;
12474;SDS011;6302;42.624;23.334;2023-12-07T01:22:53;40.67;;;28.17;;
12474;SDS011;6302;42.624;23.334;2023-12-07T01:25:20;39.00;;;26.90;;
12474;SDS011;6302;42.624;23.334;2023-12-07T01:27:47;40.50;;;27.57;;
12474;SDS011;6302;42.624;23.334;2023-12-07T01:30:14;41.47;;;28.83;;
12474;SDS011;6302;42.624;23.334;2023-12-07T01:32:41;39.43;;;27.37;;
12474;SDS011;6302;42.624;23.334;2023-12-07T01:35:08;41.97;;;27.70;;
12474;SDS011;6302;42.624;23.334;2023-12-07T01:37:36;39.53;;;27.50;;
12474;SDS011;6302;42.624;23.334;2023-12-07T01:40:03;34.33;;;24.80;;
12474;SDS011;6302;42.624;23.334;2023-12-07T01:42:35;36.27;;;25.20;;
12474;SDS011;6302;42.624;23.334;2023-12-07T01:45:02;36.90;;;24.67;;
12474;SDS011;6302;42.624;23.334;2023-12-07T01:47:28;36.87;;;26.17;;
12474;SDS011;6302;42.624;23.334;2023-12-07T01:49:56;37.90;;;27.10;;
12474;SDS011;6302;42.624;23.334;2023-12-07T01:52:23;43.17;;;29.17;;
12474;SDS011;6302;42.624;23.334;2023-12-07T01:54:54;40.83;;;28.27;;
12474;SDS011;6302;42.624;23.334;2023-12-07T01:57:21;45.00;;;30.57;;
12474;SDS011;6302;42.624;23.334;2023-12-07T01:59:48;42.83;;;30.73;;
12474;SDS011;6302;42.624;23.334;2023-12-07T02:02:15;41.63;;;28.30;;
12474;SDS011;6302;42.624;23.334;2023-12-07T02:04:42;37.13;;;26.70;;
12474;SDS011;6302;42.624;23.334;2023-12-07T02:07:09;40.13;;;27.10;;
12474;SDS011;6302;42.624;23.334;2023-12-07T02:09:37;35.70;;;25.37;;
12474;SDS011;6302;42.624;23.334;2023-12-07T02:12:05;37.63;;;25.63;;
12474;SDS011;6302;42.624;23.334;2023-12-07T02:14:33;33.97;;;25.00;;
12474;SDS011;6302;42.624;23.334;2023-12-07T02:17:01;36.53;;;24.30;;
12474;SDS011;6302;42.624;23.334;2023-12-07T02:19:47;32.60;;;24.30;;
12474;SDS011;6302;42.624;23.334;2023-12-07T02:22:21;35.63;;;24.63;;
12474;SDS011;6302;42.624;23.334;2023-12-07T02:24:57;35.03;;;25.33;;
12474;SDS011;6302;42.624;23.334;2023-12-07T02:27:39;33.60;;;26.13;;
12474;SDS011;6302;42.624;23.334;2023-12-07T02:30:07;31.73;;;23.63;;
12474;SDS011;6302;42.624;23.334;2023-12-07T02:32:34;38.40;;;27.77;;
12474;SDS011;6302;42.624;23.334;2023-12-07T02:35:02;36.70;;;26.13;;
12474;SDS011;6302;42.624;23.334;2023-12-07T02:37:31;32.33;;;24.90;;
12474;SDS011;6302;42.624;23.334;2023-12-07T02:40:02;34.80;;;24.63;;
12474;SDS011;6302;42.624;23.334;2023-12-07T02:42:33;29.17;;;21.47;;
12474;SDS011;6302;42.624;23.334;2023-12-07T02:45:02;30.20;;;22.37;;
12474;SDS011;6302;42.624;23.334;2023-12-07T02:47:29;27.43;;;21.37;;
12474;SDS011;6302;42.624;23.334;2023-12-07T02:49:57;27.13;;;19.97;;
12474;SDS011;6302;42.624;23.334;2023-12-07T02:52:24;30.53;;;22.63;;
12474;SDS011;6302;42.624;23.334;2023-12-07T02:54:50;27.57;;;21.03;;
12474;SDS011;6302;42.624;23.334;2023-12-07T02:57:17;30.60;;;23.90;;
12474;SDS011;6302;42.624;23.334;2023-12-07T02:59:44;30.00;;;21.70;;
12474;SDS011;6302;42.624;23.334;2023-12-07T03:02:12;28.30;;;21.70;;
12474;SDS011;6302;42.624;23.334;2023-12-07T03:04:39;29.93;;;21.10;;
12474;SDS011;6302;42.624;23.334;2023-12-07T03:07:06;24.83;;;19.93;;
12474;SDS011;6302;42.624;23.334;2023-12-07T03:09:32;28.83;;;21.50;;
12474;SDS011;6302;42.624;23.334;2023-12-07T03:11:59;29.40;;;22.00;;
12474;SDS011;6302;42.624;23.334;2023-12-07T03:14:26;29.67;;;21.83;;
12474;SDS011;6302;42.624;23.334;2023-12-07T03:16:53;36.33;;;25.90;;
12474;SDS011;6302;42.624;23.334;2023-12-07T03:19:21;39.37;;;26.00;;
12474;SDS011;6302;42.624;23.334;2023-12-07T03:21:48;39.07;;;25.37;;
12474;SDS011;6302;42.624;23.334;2023-12-07T03:24:14;37.03;;;24.23;;
12474;SDS011;6302;42.624;23.334;2023-12-07T03:26:41;35.87;;;24.13;;
12474;SDS011;6302;42.624;23.334;2023-12-07T03:29:08;33.47;;;24.50;;
12474;SDS011;6302;42.624;23.334;2023-12-07T03:31:35;35.67;;;24.90;;
12474;SDS011;6302;42.624;23.334;2023-12-07T03:34:01;33.93;;;24.30;;
12474;SDS011;6302;42.624;23.334;2023-12-07T03:36:31;30.90;;;22.53;;
12474;SDS011;6302;42.624;23.334;2023-12-07T03:38:58;35.47;;;23.27;;
12474;SDS011;6302;42.624;23.334;2023-12-07T03:41:25;35.97;;;25.37;;
12474;SDS011;6302;42.624;23.334;2023-12-07T03:43:52;36.27;;;24.87;;
12474;SDS011;6302;42.624;23.334;2023-12-07T03:46:18;33.20;;;23.87;;
12474;SDS011;6302;42.624;23.334;2023-12-07T03:48:45;39.13;;;25.10;;
12474;SDS011;6302;42.624;23.334;2023-12-07T03:51:12;34.10;;;24.53;;
12474;SDS011;6302;42.624;23.334;2023-12-07T03:53:42;34.87;;;24.87;;
12474;SDS011;6302;42.624;23.334;2023-12-07T03:56:09;36.50;;;25.47;;
12474;SDS011;6302;42.624;23.334;2023-12-07T03:58:36;36.13;;;25.37;;
12474;SDS011;6302;42.624;23.334;2023-12-07T04:01:03;38.70;;;25.40;;
12474;SDS011;6302;42.624;23.334;2023-12-07T04:03:30;32.90;;;24.50;;
12474;SDS011;6302;42.624;23.334;2023-12-07T04:05:57;33.50;;;23.97;;
12474;SDS011;6302;42.624;23.334;2023-12-07T04:08:23;37.90;;;24.13;;
12474;SDS011;6302;42.624;23.334;2023-12-07T04:10:51;31.73;;;23.17;;
12474;SDS011;6302;42.624;23.334;2023-12-07T04:13:18;30.10;;;23.20;;
12474;SDS011;6302;42.624;23.334;2023-12-07T04:15:45;32.80;;;22.37;;
12474;SDS011;6302;42.624;23.334;2023-12-07T04:18:12;32.23;;;23.63;;
12474;SDS011;6302;42.624;23.334;2023-12-07T04:20:38;29.87;;;22.67;;
12474;SDS011;6302;42.624;23.334;2023-12-07T04:23:05;33.83;;;23.80;;
12474;SDS011;6302;42.624;23.334;2023-12-07T04:25:32;36.60;;;23.97;;
12474;SDS011;6302;42.624;23.334;2023-12-07T04:28:01;32.07;;;23.23;;
12474;SDS011;6302;42.624;23.334;2023-12-07T04:30:27;33.07;;;23.57;;
12474;SDS011;6302;42.624;23.334;2023-12-07T04:32:54;32.33;;;23.87;;
12474;SDS011;6302;42.624;23.334;2023-12-07T04:35:21;33.57;;;22.90;;
12474;SDS011;6302;42.624;23.334;2023-12-07T04:37:48;33.93;;;24.50;;
12474;SDS011;6302;42.624;23.334;2023-12-07T04:40:14;28.90;;;22.53;;
12474;SDS011;6302;42.624;23.334;2023-12-07T04:42:41;29.53;;;22.10;;
12474;SDS011;6302;42.624;23.334;2023-12-07T04:45:10;28.73;;;21.27;;
12474;SDS011;6302;42.624;23.334;2023-12-07T04:47:37;29.97;;;22.37;;
12474;SDS011;6302;42.624;23.334;2023-12-07T04:50:04;27.17;;;20.77;;
12474;SDS011;6302;42.624;23.334;2023-12-07T04:52:31;26.43;;;18.90;;
12474;SDS011;6302;42.624;23.334;2023-12-07T04:54:58;27.30;;;20.30;;
12474;SDS011;6302;42.624;23.334;2023-12-07T04:57:25;26.83;;;20.53;;
12474;SDS011;6302;42.624;23.334;2023-12-07T04:59:52;25.57;;;18.83;;
12474;SDS011;6302;42.624;23.334;2023-12-07T05:02:21;25.30;;;19.63;;
12474;SDS011;6302;42.624;23.334;2023-12-07T05:04:47;25.40;;;18.80;;
12474;SDS011;6302;42.624;23.334;2023-12-07T05:07:14;27.07;;;18.87;;
12474;SDS011;6302;42.624;23.334;2023-12-07T05:09:41;22.97;;;18.80;;
12474;SDS011;6302;42.624;23.334;2023-12-07T05:12:08;24.13;;;18.37;;
12474;SDS011;6302;42.624;23.334;2023-12-07T05:14:35;23.23;;;17.80;;
12474;SDS011;6302;42.624;23.334;2023-12-07T05:17:02;21.27;;;18.67;;
12474;SDS011;6302;42.624;23.334;2023-12-07T05:19:31;25.03;;;20.57;;
12474;SDS011;6302;42.624;23.334;2023-12-07T05:21:58;22.50;;;18.90;;
12474;SDS011;6302;42.624;23.334;2023-12-07T05:24:25;25.43;;;20.00;;
12474;SDS011;6302;42.624;23.334;2023-12-07T05:26:51;25.17;;;17.23;;
12474;SDS011;6302;42.624;23.334;2023-12-07T05:29:19;22.97;;;16.27;;
12474;SDS011;6302;42.624;23.334;2023-12-07T05:31:48;20.63;;;17.23;;
12474;SDS011;6302;42.624;23.334;2023-12-07T05:34:15;22.83;;;18.30;;
12474;SDS011;6302;42.624;23.334;2023-12-07T05:36:45;22.13;;;19.03;;
12474;SDS011;6302;42.624;23.334;2023-12-07T05:39:12;23.77;;;18.80;;
12474;SDS011;6302;42.624;23.334;2023-12-07T05:41:39;24.40;;;19.00;;
12474;SDS011;6302;42.624;23.334;2023-12-07T05:44:06;21.80;;;18.23;;
12474;SDS011;6302;42.624;23.334;2023-12-07T05:46:35;23.23;;;18.37;;
12474;SDS011;6302;42.624;23.334;2023-12-07T05:49:03;22.50;;;19.20;;
12474;SDS011;6302;42.624;23.334;2023-12-07T05:51:30;22.80;;;18.83;;
12474;SDS011;6302;42.624;23.334;2023-12-07T05:53:58;27.90;;;20.03;;
12474;SDS011;6302;42.624;23.334;2023-12-07T05:56:25;26.13;;;20.17;;
12474;SDS011;6302;42.624;23.334;2023-12-07T05:58:52;24.63;;;19.50;;
12474;SDS011;6302;42.624;23.334;2023-12-07T06:01:18;24.27;;;19.40;;
12474;SDS011;6302;42.624;23.334;2023-12-07T06:03:45;21.00;;;16.70;;
12474;SDS011;6302;42.624;23.334;2023-12-07T06:06:12;22.83;;;17.80;;
12474;SDS011;6302;42.624;23.334;2023-12-07T06:08:39;22.60;;;18.33;;
12474;SDS011;6302;42.624;23.334;2023-12-07T06:11:08;23.37;;;18.37;;
12474;SDS011;6302;42.624;23.334;2023-12-07T06:13:35;25.23;;;18.97;;
12474;SDS011;6302;42.624;23.334;2023-12-07T06:16:04;26.13;;;19.30;;
12474;SDS011;6302;42.624;23.334;2023-12-07T06:18:34;24.20;;;19.77;;
12474;SDS011;6302;42.624;23.334;2023-12-07T06:21:03;24.67;;;18.63;;
12474;SDS011;6302;42.624;23.334;2023-12-07T06:23:30;22.90;;;19.80;;
12474;SDS011;6302;42.624;23.334;2023-12-07T06:25:56;24.17;;;18.83;;
12474;SDS011;6302;42.624;23.334;2023-12-07T06:28:24;21.47;;;18.03;;
12474;SDS011;6302;42.624;23.334;2023-12-07T06:30:52;25.27;;;20.23;;
12474;SDS011;6302;42.624;23.334;2023-12-07T06:33:18;26.67;;;20.90;;
12474;SDS011;6302;42.624;23.334;2023-12-07T06:35:45;23.93;;;18.97;;
12474;SDS011;6302;42.624;23.334;2023-12-07T06:38:13;29.13;;;20.67;;
12474;SDS011;6302;42.624;23.334;2023-12-07T06:40:40;23.87;;;20.23;;
12474;SDS011;6302;42.624;23.334;2023-12-07T06:43:06;25.30;;;20.03;;
12474;SDS011;6302;42.624;23.334;2023-12-07T06:45:35;27.87;;;21.23;;
12474;SDS011;6302;42.624;23.334;2023-12-07T06:48:02;27.27;;;20.33;;
12474;SDS011;6302;42.624;23.334;2023-12-07T06:50:29;25.57;;;19.40;;
12474;SDS011;6302;42.624;23.334;2023-12-07T06:52:55;26.17;;;20.23;;
12474;SDS011;6302;42.624;23.334;2023-12-07T06:55:22;24.20;;;19.47;;
12474;SDS011;6302;42.624;23.334;2023-12-07T06:57:49;24.03;;;19.37;;
12474;SDS011;6302;42.624;23.334;2023-12-07T07:00:16;22.03;;;17.50;;
12474;SDS011;6302;42.624;23.334;2023-12-07T07:02:46;20.87;;;16.30;;
12474;SDS011;6302;42.624;23.334;2023-12-07T07:05:13;20.17;;;15.80;;
12474;SDS011;6302;42.624;23.334;2023-12-07T07:07:40;19.90;;;17.20;;
12474;SDS011;6302;42.624;23.334;2023-12-07T07:10:07;26.03;;;18.90;;
12474;SDS011;6302;42.624;23.334;2023-12-07T07:12:38;22.60;;;18.73;;
12474;SDS011;6302;42.624;23.334;2023-12-07T07:15:06;24.93;;;18.73;;
12474;SDS011;6302;42.624;23.334;2023-12-07T07:17:33;20.30;;;17.27;;
12474;SDS011;6302;42.624;23.334;2023-12-07T07:20:02;19.20;;;16.20;;
12474;SDS011;6302;42.624;23.334;2023-12-07T07:22:29;17.70;;;14.60;;
12474;SDS011;6302;42.624;23.334;2023-12-07T07:24:56;16.03;;;14.33;;
12474;SDS011;6302;42.624;23.334;2023-12-07T07:27:22;20.30;;;15.73;;
12474;SDS011;6302;42.624;23.334;2023-12-07T07:29:49;20.30;;;17.23;;
12474;SDS011;6302;42.624;23.334;2023-12-07T07:32:16;21.70;;;16.47;;
12474;SDS011;6302;42.624;23.334;2023-12-07T07:34:43;24.53;;;17.90;;
12474;SDS011;6302;42.624;23.334;2023-12-07T07:37:11;21.23;;;16.67;;
12474;SDS011;6302;42.624;23.334;2023-12-07T07:39:38;21.83;;;17.40;;
12474;SDS011;6302;42.624;23.334;2023-12-07T07:42:04;24.50;;;18.33;;
12474;SDS011;6302;42.624;23.334;2023-12-07T07:44:31;24.17;;;17.30;;
12474;SDS011;6302;42.624;23.334;2023-12-07T07:46:58;23.43;;;17.03;;
12474;SDS011;6302;42.624;23.334;2023-12-07T07:49:25;26.73;;;17.47;;
12474;SDS011;6302;42.624;23.334;2023-12-07T07:51:52;26.60;;;17.00;;
12474;SDS011;6302;42.624;23.334;2023-12-07T07:54:20;23.73;;;16.37;;
12474;SDS011;6302;42.624;23.334;2023-12-07T07:56:46;26.77;;;17.37;;
12474;SDS011;6302;42.624;23.334;2023-12-07T07:59:14;22.37;;;17.20;;
12474;SDS011;6302;42.624;23.334;2023-12-07T08:01:41;24.87;;;17.77;;
12474;SDS011;6302;42.624;23.334;2023-12-07T08:04:09;18.47;;;14.20;;
12474;SDS011;6302;42.624;23.334;2023-12-07T08:06:37;21.77;;;13.67;;
12474;SDS011;6302;42.624;23.334;2023-12-07T08:09:04;19.37;;;14.90;;
12474;SDS011;6302;42.624;23.334;2023-12-07T08:11:32;18.43;;;15.33;;
12474;SDS011;6302;42.624;23.334;2023-12-07T08:13:59;20.77;;;14.83;;
12474;SDS011;6302;42.624;23.334;2023-12-07T08:16:26;16.80;;;14.23;;
12474;SDS011;6302;42.624;23.334;2023-12-07T08:18:53;17.23;;;13.60;;
12474;SDS011;6302;42.624;23.334;2023-12-07T08:21:20;16.27;;;13.17;;
12474;SDS011;6302;42.624;23.334;2023-12-07T08:23:48;17.77;;;12.57;;
12474;SDS011;6302;42.624;23.334;2023-12-07T08:26:14;17.27;;;12.20;;
12474;SDS011;6302;42.624;23.334;2023-12-07T08:28:43;17.00;;;12.80;;
12474;SDS011;6302;42.624;23.334;2023-12-07T08:31:10;18.67;;;14.73;;
12474;SDS011;6302;42.624;23.334;2023-12-07T08:33:36;17.30;;;13.93;;
12474;SDS011;6302;42.624;23.334;2023-12-07T08:36:04;17.60;;;13.43;;
12474;SDS011;6302;42.624;23.334;2023-12-07T08:38:32;15.27;;;11.90;;
12474;SDS011;6302;42.624;23.334;2023-12-07T08:40:58;13.90;;;11.60;;
12474;SDS011;6302;42.624;23.334;2023-12-07T08:43:25;18.07;;;12.73;;
12474;SDS011;6302;42.624;23.334;2023-12-07T08:45:54;18.27;;;14.07;;
12474;SDS011;6302;42.624;23.334;2023-12-07T08:48:21;17.40;;;12.17;;
12474;SDS011;6302;42.624;23.334;2023-12-07T08:50:48;13.03;;;10.47;;
12474;SDS011;6302;42.624;23.334;2023-12-07T08:53:16;12.67;;;10.90;;
12474;SDS011;6302;42.624;23.334;2023-12-07T08:55:43;10.97;;;9.70;;
12474;SDS011;6302;42.624;23.334;2023-12-07T08:58:09;10.83;;;9.50;;
12474;SDS011;6302;42.624;23.334;2023-12-07T09:00:37;9.63;;;8.67;;
12474;SDS011;6302;42.624;23.334;2023-12-07T09:03:05;17.37;;;11.47;;
12474;SDS011;6302;42.624;23.334;2023-12-07T09:05:32;17.23;;;11.97;;
12474;SDS011;6302;42.624;23.334;2023-12-07T09:07:59;9.90;;;8.20;;
12474;SDS011;6302;42.624;23.334;2023-12-07T09:10:25;13.40;;;10.90;;
12474;SDS011;6302;42.624;23.334;2023-12-07T09:12:53;9.83;;;8.77;;
12474;SDS011;6302;42.624;23.334;2023-12-07T09:15:20;10.27;;;8.40;;
12474;SDS011;6302;42.624;23.334;2023-12-07T09:17:47;7.47;;;6.77;;
12474;SDS011;6302;42.624;23.334;2023-12-07T09:20:16;10.00;;;8.00;;
12474;SDS011;6302;42.624;23.334;2023-12-07T09:22:45;8.83;;;7.13;;
12474;SDS011;6302;42.624;23.334;2023-12-07T09:25:13;9.23;;;7.00;;
12474;SDS011;6302;42.624;23.334;2023-12-07T09:27:41;7.17;;;6.47;;
12474;SDS011;6302;42.624;23.334;2023-12-07T09:30:08;9.50;;;7.00;;
12474;SDS011;6302;42.624;23.334;2023-12-07T09:32:37;6.90;;;6.20;;
12474;SDS011;6302;42.624;23.334;2023-12-07T09:35:04;6.40;;;5.50;;
12474;SDS011;6302;42.624;23.334;2023-12-07T09:37:33;5.97;;;5.33;;
12474;SDS011;6302;42.624;23.334;2023-12-07T09:40:00;5.70;;;5.10;;
12474;SDS011;6302;42.624;23.334;2023-12-07T09:42:31;6.17;;;5.47;;
12474;SDS011;6302;42.624;23.334;2023-12-07T09:44:57;4.83;;;4.37;;
12474;SDS011;6302;42.624;23.334;2023-12-07T09:47:25;3.37;;;3.07;;
12474;SDS011;6302;42.624;23.334;2023-12-07T09:49:53;4.10;;;3.70;;
12474;SDS011;6302;42.624;23.334;2023-12-07T09:52:20;5.83;;;4.50;;
12474;SDS011;6302;42.624;23.334;2023-12-07T09:54:49;4.97;;;4.47;;
12474;SDS011;6302;42.624;23.334;2023-12-07T09:57:17;3.03;;;2.83;;
12474;SDS011;6302;42.624;23.334;2023-12-07T09:59:44;3.93;;;3.63;;
12474;SDS011;6302;42.624;23.334;2023-12-07T10:02:11;3.17;;;2.97;;
12474;SDS011;6302;42.624;23.334;2023-12-07T10:04:39;3.80;;;3.50;;
12474;SDS011;6302;42.624;23.334;2023-12-07T10:07:06;3.60;;;3.30;;
12474;SDS011;6302;42.624;23.334;2023-12-07T10:09:34;3.87;;;3.50;;
12474;SDS011;6302;42.624;23.334;2023-12-07T10:12:05;3.57;;;3.27;;
12474;SDS011;6302;42.624;23.334;2023-12-07T10:14:33;2.87;;;2.67;;
12474;SDS011;6302;42.624;23.334;2023-12-07T10:17:00;3.10;;;2.90;;
12474;SDS011;6302;42.624;23.334;2023-12-07T10:19:26;3.20;;;2.90;;
12474;SDS011;6302;42.624;23.334;2023-12-07T10:21:53;2.90;;;2.70;;
12474;SDS011;6302;42.624;23.334;2023-12-07T10:24:21;3.20;;;2.90;;
12474;SDS011;6302;42.624;23.334;2023-12-07T10:26:49;3.70;;;3.40;;
12474;SDS011;6302;42.624;23.334;2023-12-07T10:29:18;3.73;;;3.33;;
12474;SDS011;6302;42.624;23.334;2023-12-07T10:31:48;2.63;;;2.43;;
12474;SDS011;6302;42.624;23.334;2023-12-07T10:34:17;2.90;;;2.70;;
12474;SDS011;6302;42.624;23.334;2023-12-07T10:36:45;3.33;;;3.03;;
12474;SDS011;6302;42.624;23.334;2023-12-07T10:39:12;3.47;;;3.20;;
12474;SDS011;6302;42.624;23.334;2023-12-07T10:41:40;3.73;;;3.43;;
12474;SDS011;6302;42.624;23.334;2023-12-07T10:44:11;5.57;;;4.60;;
12474;SDS011;6302;42.624;23.334;2023-12-07T10:46:43;3.40;;;2.83;;
12474;SDS011;6302;42.624;23.334;2023-12-07T10:49:11;4.23;;;3.93;;
12474;SDS011;6302;42.624;23.334;2023-12-07T10:51:44;7.50;;;6.30;;
12474;SDS011;6302;42.624;23.334;2023-12-07T10:54:16;4.63;;;4.33;;
12474;SDS011;6302;42.624;23.334;2023-12-07T10:56:48;4.67;;;4.27;;
12474;SDS011;6302;42.624;23.334;2023-12-07T10:59:16;3.63;;;3.37;;
12474;SDS011;6302;42.624;23.334;2023-12-07T11:01:44;4.13;;;3.80;;
12474;SDS011;6302;42.624;23.334;2023-12-07T11:04:13;3.80;;;3.50;;
12474;SDS011;6302;42.624;23.334;2023-12-07T11:06:40;2.67;;;2.47;;
12474;SDS011;6302;42.624;23.334;2023-12-07T11:09:12;2.60;;;2.40;;
12474;SDS011;6302;42.624;23.334;2023-12-07T11:11:45;2.07;;;1.97;;
12474;SDS011;6302;42.624;23.334;2023-12-07T11:14:15;2.13;;;2.03;;
12474;SDS011;6302;42.624;23.334;2023-12-07T11:16:43;2.23;;;2.00;;
12474;SDS011;6302;42.624;23.334;2023-12-07T11:22:15;2.03;;;1.93;;
12474;SDS011;6302;42.624;23.334;2023-12-07T11:24:54;1.93;;;1.83;;
12474;SDS011;6302;42.624;23.334;2023-12-07T11:27:24;2.00;;;1.90;;
12474;SDS011;6302;42.624;23.334;2023-12-07T11:29:51;3.50;;;2.20;;
12474;SDS011;6302;42.624;23.334;2023-12-07T11:32:19;2.23;;;2.13;;
12474;SDS011;6302;42.624;23.334;2023-12-07T11:34:47;2.40;;;2.20;;
12474;SDS011;6302;42.624;23.334;2023-12-07T11:37:14;2.07;;;1.97;;
12474;SDS011;6302;42.624;23.334;2023-12-07T11:39:42;2.30;;;2.20;;
12474;SDS011;6302;42.624;23.334;2023-12-07T11:42:11;2.63;;;2.50;;
12474;SDS011;6302;42.624;23.334;2023-12-07T11:44:39;2.70;;;2.50;;
12474;SDS011;6302;42.624;23.334;2023-12-07T11:47:07;1.90;;;1.80;;
12474;SDS011;6302;42.624;23.334;2023-12-07T11:49:38;2.20;;;2.10;;
12474;SDS011;6302;42.624;23.334;2023-12-07T11:52:11;2.00;;;1.90;;
12474;SDS011;6302;42.624;23.334;2023-12-07T11:54:39;2.27;;;2.17;;
12474;SDS011;6302;42.624;23.334;2023-12-07T11:57:06;2.20;;;2.10;;
12474;SDS011;6302;42.624;23.334;2023-12-07T11:59:33;2.33;;;2.13;;
12474;SDS011;6302;42.624;23.334;2023-12-07T12:01:59;2.23;;;2.13;;
12474;SDS011;6302;42.624;23.334;2023-12-07T12:04:27;2.40;;;2.30;;
12474;SDS011;6302;42.624;23.334;2023-12-07T12:06:57;2.80;;;2.60;;
12474;SDS011;6302;42.624;23.334;2023-12-07T12:09:24;2.40;;;2.30;;
12474;SDS011;6302;42.624;23.334;2023-12-07T12:11:51;2.40;;;2.30;;
12474;SDS011;6302;42.624;23.334;2023-12-07T12:14:17;2.10;;;2.00;;
12474;SDS011;6302;42.624;23.334;2023-12-07T12:16:46;3.00;;;2.80;;
12474;SDS011;6302;42.624;23.334;2023-12-07T12:19:13;2.90;;;2.70;;
12474;SDS011;6302;42.624;23.334;2023-12-07T12:21:40;3.17;;;2.87;;
12474;SDS011;6302;42.624;23.334;2023-12-07T12:24:10;2.70;;;2.50;;
12474;SDS011;6302;42.624;23.334;2023-12-07T12:26:39;2.67;;;2.47;;
12474;SDS011;6302;42.624;23.334;2023-12-07T12:29:08;2.27;;;2.17;;
12474;SDS011;6302;42.624;23.334;2023-12-07T12:31:37;3.00;;;2.80;;
12474;SDS011;6302;42.624;23.334;2023-12-07T12:34:05;2.90;;;2.70;;
12474;SDS011;6302;42.624;23.334;2023-12-07T12:36:33;4.00;;;3.70;;
12474;SDS011;6302;42.624;23.334;2023-12-07T12:39:00;3.40;;;3.17;;
12474;SDS011;6302;42.624;23.334;2023-12-07T12:41:30;3.10;;;2.90;;
12474;SDS011;6302;42.624;23.334;2023-12-07T12:43:57;3.30;;;3.10;;
12474;SDS011;6302;42.624;23.334;2023-12-07T12:46:25;3.30;;;3.00;;
12474;SDS011;6302;42.624;23.334;2023-12-07T12:48:52;2.40;;;2.30;;
12474;SDS011;6302;42.624;23.334;2023-12-07T12:51:20;3.20;;;2.90;;
12474;SDS011;6302;42.624;23.334;2023-12-07T12:53:50;3.03;;;2.83;;
12474;SDS011;6302;42.624;23.334;2023-12-07T12:56:17;3.57;;;3.27;;
12474;SDS011;6302;42.624;23.334;2023-12-07T12:58:46;3.23;;;3.00;;
12474;SDS011;6302;42.624;23.334;2023-12-07T13:01:13;3.30;;;3.10;;
12474;SDS011;6302;42.624;23.334;2023-12-07T13:03:42;3.30;;;3.10;;
12474;SDS011;6302;42.624;23.334;2023-12-07T13:06:10;4.03;;;3.70;;
12474;SDS011;6302;42.624;23.334;2023-12-07T13:08:37;3.53;;;3.23;;
12474;SDS011;6302;42.624;23.334;2023-12-07T13:11:05;3.93;;;3.63;;
12474;SDS011;6302;42.624;23.334;2023-12-07T13:13:32;3.10;;;2.90;;
12474;SDS011;6302;42.624;23.334;2023-12-07T13:16:00;3.67;;;3.40;;
12474;SDS011;6302;42.624;23.334;2023-12-07T13:18:27;2.80;;;2.60;;
12474;SDS011;6302;42.624;23.334;2023-12-07T13:20:54;3.70;;;3.50;;
12474;SDS011;6302;42.624;23.334;2023-12-07T13:23:21;3.53;;;3.23;;
12474;SDS011;6302;42.624;23.334;2023-12-07T13:25:47;2.90;;;2.70;;
12474;SDS011;6302;42.624;23.334;2023-12-07T13:28:14;3.47;;;3.17;;
12474;SDS011;6302;42.624;23.334;2023-12-07T13:30:41;3.73;;;3.43;;
12474;SDS011;6302;42.624;23.334;2023-12-07T13:33:09;4.10;;;3.37;;
12474;SDS011;6302;42.624;23.334;2023-12-07T13:35:36;3.90;;;3.60;;
12474;SDS011;6302;42.624;23.334;2023-12-07T13:38:03;3.70;;;3.40;;
12474;SDS011;6302;42.624;23.334;2023-12-07T13:40:30;3.60;;;3.40;;
12474;SDS011;6302;42.624;23.334;2023-12-07T13:42:57;3.43;;;3.23;;
12474;SDS011;6302;42.624;23.334;2023-12-07T13:45:23;3.00;;;2.70;;
12474;SDS011;6302;42.624;23.334;2023-12-07T13:47:51;5.20;;;3.50;;
12474;SDS011;6302;42.624;23.334;2023-12-07T13:50:19;3.53;;;3.33;;
12474;SDS011;6302;42.624;23.334;2023-12-07T13:52:47;4.40;;;4.10;;
12474;SDS011;6302;42.624;23.334;2023-12-07T13:55:14;3.70;;;3.40;;
12474;SDS011;6302;42.624;23.334;2023-12-07T13:57:41;4.10;;;3.80;;
12474;SDS011;6302;42.624;23.334;2023-12-07T14:00:08;4.00;;;3.70;;
12474;SDS011;6302;42.624;23.334;2023-12-07T14:02:38;4.63;;;4.10;;
12474;SDS011;6302;42.624;23.334;2023-12-07T14:05:07;5.00;;;4.33;;
12474;SDS011;6302;42.624;23.334;2023-12-07T14:07:35;4.47;;;4.13;;
12474;SDS011;6302;42.624;23.334;2023-12-07T14:10:02;4.03;;;3.73;;
12474;SDS011;6302;42.624;23.334;2023-12-07T14:12:29;4.40;;;4.10;;
12474;SDS011;6302;42.624;23.334;2023-12-07T14:14:57;4.40;;;4.00;;
12474;SDS011;6302;42.624;23.334;2023-12-07T14:17:24;4.20;;;3.80;;
12474;SDS011;6302;42.624;23.334;2023-12-07T14:19:50;4.73;;;4.33;;
12474;SDS011;6302;42.624;23.334;2023-12-07T14:22:18;4.40;;;4.00;;
12474;SDS011;6302;42.624;23.334;2023-12-07T14:24:46;4.80;;;4.43;;
12474;SDS011;6302;42.624;23.334;2023-12-07T14:27:13;5.17;;;4.77;;
12474;SDS011;6302;42.624;23.334;2023-12-07T14:29:40;5.53;;;5.03;;
12474;SDS011;6302;42.624;23.334;2023-12-07T14:32:07;5.63;;;5.00;;
12474;SDS011;6302;42.624;23.334;2023-12-07T14:34:34;5.27;;;4.87;;
12474;SDS011;6302;42.624;23.334;2023-12-07T14:37:03;5.63;;;5.13;;